createdAt,value
2022-10-10T00:00:22.613Z,8.69
2022-10-10T00:02:52.496Z,8.52
2022-10-10T00:05:19.106Z,8.60
2022-10-10T00:07:45.549Z,8.58
2022-10-10T00:10:11.943Z,8.69
2022-10-10T00:12:38.363Z,8.46
2022-10-10T00:15:05.658Z,8.49
2022-10-10T00:17:32.073Z,8.68
2022-10-10T00:19:58.512Z,8.37
2022-10-10T00:22:27.273Z,8.38
2022-10-10T00:24:53.723Z,8.42
2022-10-10T00:27:20.140Z,8.42
2022-10-10T00:29:46.555Z,8.47
2022-10-10T00:32:12.972Z,8.57
2022-10-10T00:34:39.400Z,8.58
2022-10-10T00:37:05.823Z,8.60
2022-10-10T00:39:32.355Z,8.34
2022-10-10T00:41:58.822Z,8.39
2022-10-10T00:44:27.449Z,8.22
2022-10-10T00:46:53.879Z,8.29
2022-10-10T00:49:25.315Z,8.33
2022-10-10T00:51:56.898Z,8.29
2022-10-10T00:54:24.716Z,8.30
2022-10-10T00:56:53.120Z,8.28
2022-10-10T00:59:22.836Z,8.27
2022-10-10T01:01:49.330Z,8.23
2022-10-10T01:04:36.946Z,8.31
2022-10-10T01:07:11.446Z,8.30
2022-10-10T01:09:43.025Z,8.17
2022-10-10T01:12:43.601Z,8.30
2022-10-10T01:16:00.859Z,8.18
2022-10-10T01:18:41.287Z,8.26
2022-10-10T01:21:13.834Z,8.16
2022-10-10T01:23:46.167Z,8.04
2022-10-10T01:26:30.644Z,8.12
2022-10-10T01:29:15.794Z,8.14
2022-10-10T01:31:46.322Z,8.16
2022-10-10T01:34:15.684Z,8.09
2022-10-10T01:37:04.578Z,8.03
2022-10-10T01:39:53.198Z,8.06
2022-10-10T01:42:25.728Z,8.01
2022-10-10T01:44:53.962Z,8.03
2022-10-10T01:47:22.186Z,7.99
2022-10-10T01:49:55.514Z,7.77
2022-10-10T01:52:46.681Z,7.90
2022-10-10T01:56:07.629Z,7.78
2022-10-10T01:59:06.209Z,7.91
2022-10-10T02:01:38.702Z,7.91
2022-10-10T02:04:27.380Z,7.96
2022-10-10T02:07:00.467Z,8.16
2022-10-10T02:09:34.906Z,8.18
2022-10-10T02:12:02.601Z,8.03
2022-10-10T02:14:37.719Z,7.97
2022-10-10T02:17:07.867Z,7.91
2022-10-10T02:19:35.094Z,7.69
2022-10-10T02:22:04.788Z,7.64
2022-10-10T02:24:31.375Z,7.89
2022-10-10T02:27:12.282Z,7.94
2022-10-10T02:29:42.456Z,8.00
2022-10-10T02:32:26.774Z,7.98
2022-10-10T02:34:57.847Z,7.89
2022-10-10T02:37:25.509Z,7.63
2022-10-10T02:39:58.151Z,7.53
2022-10-10T02:42:27.115Z,7.49
2022-10-10T02:44:54.776Z,7.63
2022-10-10T02:47:21.275Z,7.46
2022-10-10T02:49:51.944Z,7.49
2022-10-10T02:52:20.895Z,7.51
2022-10-10T02:54:47.360Z,7.45
2022-10-10T02:57:13.929Z,7.59
2022-10-10T02:59:40.449Z,7.73
2022-10-10T03:02:07.839Z,7.62
2022-10-10T03:04:36.127Z,7.65
2022-10-10T03:07:03.870Z,7.69
2022-10-10T03:09:30.331Z,7.47
2022-10-10T03:11:59.083Z,7.33
2022-10-10T03:14:25.839Z,7.32
2022-10-10T03:16:53.053Z,7.22
2022-10-10T03:19:19.497Z,7.29
2022-10-10T03:21:45.922Z,7.25
2022-10-10T03:24:12.630Z,7.27
2022-10-10T03:26:39.097Z,7.16
2022-10-10T03:29:08.268Z,7.12
2022-10-10T03:31:34.674Z,7.25
2022-10-10T03:34:01.781Z,7.25
2022-10-10T03:36:28.287Z,7.05
2022-10-10T03:38:57.126Z,7.15
2022-10-10T03:41:25.908Z,7.13
2022-10-10T03:43:52.364Z,7.02
2022-10-10T03:46:19.010Z,6.95
2022-10-10T03:48:45.493Z,7.09
2022-10-10T03:51:12.158Z,7.34
2022-10-10T03:53:39.137Z,7.25
2022-10-10T03:56:05.857Z,7.33
2022-10-10T03:58:32.402Z,7.20
2022-10-10T04:01:01.409Z,7.02
2022-10-10T04:03:29.048Z,6.96
2022-10-10T04:05:55.998Z,6.95
2022-10-10T04:08:25.486Z,6.87
2022-10-10T04:10:53.170Z,6.74
2022-10-10T04:13:20.876Z,6.80
2022-10-10T04:15:51.010Z,6.79
2022-10-10T04:18:17.910Z,6.67
2022-10-10T04:20:44.426Z,6.69
2022-10-10T04:23:10.874Z,6.70
2022-10-10T04:25:37.301Z,6.74
2022-10-10T04:28:03.974Z,6.76
2022-10-10T04:30:33.461Z,6.82
2022-10-10T04:33:01.998Z,6.77
2022-10-10T04:35:28.698Z,6.77
2022-10-10T04:37:55.125Z,6.65
2022-10-10T04:40:26.239Z,6.58
2022-10-10T04:42:53.597Z,6.74
2022-10-10T04:45:20.326Z,6.69
2022-10-10T04:47:46.793Z,6.67
2022-10-10T04:50:13.225Z,6.88
2022-10-10T04:52:39.667Z,6.67
2022-10-10T04:55:06.247Z,6.61
2022-10-10T04:57:35.200Z,6.79
2022-10-10T05:00:01.828Z,6.61
2022-10-10T05:02:28.335Z,6.67
2022-10-10T05:04:54.776Z,6.78
2022-10-10T05:07:21.343Z,6.71
2022-10-10T05:09:47.855Z,6.49
2022-10-10T05:12:14.328Z,6.51
2022-10-10T05:14:44.615Z,6.44
2022-10-10T05:17:13.947Z,6.50
2022-10-10T05:19:45.312Z,6.71
2022-10-10T05:22:11.701Z,6.58
2022-10-10T05:24:38.199Z,6.61
2022-10-10T05:27:04.607Z,6.51
2022-10-10T05:29:33.479Z,6.60
2022-10-10T05:31:59.910Z,6.37
2022-10-10T05:34:28.685Z,6.47
2022-10-10T05:36:58.021Z,6.37
2022-10-10T05:39:24.464Z,6.32
2022-10-10T05:41:50.941Z,6.39
2022-10-10T05:44:17.413Z,6.46
2022-10-10T05:46:43.798Z,6.52
2022-10-10T05:49:10.210Z,6.55
2022-10-10T05:51:36.693Z,6.54
2022-10-10T05:54:05.451Z,6.65
2022-10-10T05:56:31.982Z,6.52
2022-10-10T05:58:58.387Z,6.55
2022-10-10T06:01:26.824Z,6.65
2022-10-10T06:03:55.988Z,6.64
2022-10-10T06:06:24.182Z,6.90
2022-10-10T06:08:50.956Z,6.89
2022-10-10T06:11:19.172Z,6.88
2022-10-10T06:13:47.311Z,6.97
2022-10-10T06:16:13.740Z,7.14
2022-10-10T06:18:40.177Z,7.35
2022-10-10T06:21:07.878Z,7.38
2022-10-10T06:23:34.813Z,7.66
2022-10-10T06:26:01.254Z,7.78
2022-10-10T06:28:27.882Z,7.71
2022-10-10T06:30:54.436Z,7.91
2022-10-10T06:33:20.888Z,8.08
2022-10-10T06:35:48.955Z,8.14
2022-10-10T06:38:19.345Z,8.31
2022-10-10T06:40:48.463Z,8.48
2022-10-10T06:43:16.516Z,9.05
2022-10-10T06:45:46.276Z,9.72
2022-10-10T06:48:15.439Z,10.15
2022-10-10T06:50:44.404Z,10.56
2022-10-10T06:53:13.228Z,10.15
2022-10-10T06:55:47.054Z,10.40
2022-10-10T06:58:14.773Z,10.74
2022-10-10T07:00:41.195Z,11.12
2022-10-10T07:03:12.674Z,11.03
2022-10-10T07:05:41.595Z,11.66
2022-10-10T07:08:09.637Z,11.63
2022-10-10T07:10:36.834Z,11.92
2022-10-10T07:13:03.245Z,11.81
2022-10-10T07:15:29.655Z,12.29
2022-10-10T07:17:58.557Z,12.45
2022-10-10T07:20:25.855Z,12.08
2022-10-10T07:22:52.736Z,11.75
2022-10-10T07:25:19.512Z,11.72
2022-10-10T07:27:45.961Z,11.99
2022-10-10T07:30:15.199Z,11.95
2022-10-10T07:32:41.968Z,12.00
2022-10-10T07:35:08.625Z,12.24
2022-10-10T07:37:35.130Z,12.53
2022-10-10T07:40:08.521Z,12.30
2022-10-10T07:42:35.725Z,12.14
2022-10-10T07:45:02.159Z,12.09
2022-10-10T07:47:29.033Z,12.17
2022-10-10T07:49:55.435Z,12.09
2022-10-10T07:52:21.903Z,11.98
2022-10-10T07:54:48.370Z,11.99
2022-10-10T07:57:14.759Z,12.48
2022-10-10T07:59:41.195Z,12.17
2022-10-10T08:02:09.498Z,12.20
2022-10-10T08:04:36.171Z,12.12
2022-10-10T08:07:04.865Z,12.26
2022-10-10T08:09:31.289Z,12.51
2022-10-10T08:11:57.690Z,12.62
2022-10-10T08:14:24.181Z,12.60
2022-10-10T08:16:50.661Z,12.67
2022-10-10T08:19:17.139Z,12.51
2022-10-10T08:21:43.582Z,12.72
2022-10-10T08:24:10.075Z,12.56
2022-10-10T08:26:36.503Z,12.48
2022-10-10T08:29:05.127Z,12.76
2022-10-10T08:31:31.558Z,12.81
2022-10-10T08:33:57.979Z,12.76
2022-10-10T08:36:25.229Z,12.83
2022-10-10T08:38:57.066Z,13.05
2022-10-10T08:41:29.443Z,13.02
2022-10-10T08:44:04.713Z,13.09
2022-10-10T08:46:36.957Z,13.09
2022-10-10T08:49:16.602Z,13.21
2022-10-10T08:51:49.592Z,13.35
2022-10-10T08:54:17.873Z,13.56
2022-10-10T08:56:44.686Z,13.74
2022-10-10T08:59:29.276Z,13.75
2022-10-10T09:02:18.622Z,13.72
2022-10-10T09:04:48.465Z,13.73
2022-10-10T09:07:25.986Z,13.73
2022-10-10T09:10:11.246Z,13.82
2022-10-10T09:12:46.750Z,14.06
2022-10-10T09:15:35.197Z,14.27
2022-10-10T09:18:18.315Z,14.45
2022-10-10T09:21:03.531Z,14.41
2022-10-10T09:23:54.963Z,14.51
2022-10-10T09:26:26.729Z,14.56
2022-10-10T09:29:06.024Z,14.68
2022-10-10T09:31:42.001Z,14.87
2022-10-10T09:34:21.261Z,14.78
2022-10-10T09:36:48.613Z,14.66
2022-10-10T09:39:27.335Z,14.65
2022-10-10T09:41:57.957Z,14.90
2022-10-10T09:44:26.952Z,15.10
2022-10-10T09:46:53.838Z,15.17
2022-10-10T09:49:21.356Z,15.33
2022-10-10T09:51:49.367Z,15.60
2022-10-10T09:54:19.288Z,15.70
2022-10-10T09:56:56.709Z,15.64
2022-10-10T09:59:42.729Z,15.87
2022-10-10T10:02:23.930Z,15.99
2022-10-10T10:04:53.928Z,16.09
2022-10-10T10:07:28.229Z,16.23
2022-10-10T10:09:59.202Z,16.31
2022-10-10T10:12:37.396Z,16.45
2022-10-10T10:15:07.155Z,16.53
2022-10-10T10:17:33.830Z,16.75
2022-10-10T10:20:02.952Z,16.99
2022-10-10T10:22:41.617Z,16.94
2022-10-10T10:25:31.309Z,17.24
2022-10-10T10:28:10.377Z,17.40
2022-10-10T10:30:38.377Z,17.37
2022-10-10T10:33:43.365Z,17.33
2022-10-10T10:36:28.542Z,17.55
2022-10-10T10:39:14.155Z,17.53
2022-10-10T10:41:55.916Z,17.62
2022-10-10T10:44:45.252Z,17.50
2022-10-10T10:47:14.294Z,17.70
2022-10-10T10:50:11.867Z,17.63
2022-10-10T10:52:58.858Z,17.63
2022-10-10T10:55:39.368Z,17.82
2022-10-10T10:59:04.928Z,18.07
2022-10-10T11:01:44.781Z,18.23
2022-10-10T11:05:20.701Z,18.35
2022-10-10T11:07:20.422Z,18.25
2022-10-10T11:10:09.234Z,17.99
2022-10-10T11:13:01.587Z,17.96
2022-10-10T11:16:05.332Z,18.04
2022-10-10T11:18:39.990Z,18.12
2022-10-10T11:21:13.257Z,18.08
2022-10-10T11:23:47.441Z,17.98
2022-10-10T11:26:23.523Z,18.03
2022-10-10T11:28:59.149Z,18.05
2022-10-10T11:31:52.525Z,17.97
2022-10-10T11:34:31.109Z,17.97
2022-10-10T11:37:04.331Z,17.88
2022-10-10T11:39:41.317Z,18.01
2022-10-10T11:42:16.060Z,18.11
2022-10-10T11:44:47.949Z,18.27
2022-10-10T11:47:37.788Z,18.27
2022-10-10T11:50:18.679Z,18.44
2022-10-10T11:53:00.335Z,18.60
2022-10-10T11:55:31.703Z,18.87
2022-10-10T11:58:09.548Z,19.01
2022-10-10T12:00:45.379Z,19.15
2022-10-10T12:03:12.881Z,19.34
2022-10-10T12:05:47.970Z,19.69
2022-10-10T12:08:19.922Z,19.88
2022-10-10T12:10:53.627Z,19.92
2022-10-10T12:13:26.013Z,20.15
2022-10-10T12:15:56.531Z,20.38
2022-10-10T12:18:30.666Z,20.72
2022-10-10T12:21:09.921Z,20.83
2022-10-10T12:23:37.322Z,20.86
2022-10-10T12:26:04.712Z,20.87
2022-10-10T12:29:02.793Z,21.12
2022-10-10T12:31:32.167Z,21.21
2022-10-10T12:34:02.362Z,21.37
2022-10-10T12:36:31.063Z,21.22
2022-10-10T12:39:08.090Z,21.27
2022-10-10T12:41:56.845Z,21.08
2022-10-10T12:44:35.570Z,21.30
2022-10-10T12:47:14.329Z,21.33
2022-10-10T12:49:53.027Z,21.28
2022-10-10T12:52:48.982Z,21.04
2022-10-10T12:55:43.964Z,21.24
2022-10-10T12:58:26.606Z,21.26
2022-10-10T13:01:00.258Z,21.31
2022-10-10T13:03:32.730Z,21.26
2022-10-10T13:06:05.617Z,21.20
2022-10-10T13:08:34.667Z,21.22
2022-10-10T13:11:06.869Z,21.25
2022-10-10T13:13:35.931Z,21.26
2022-10-10T13:16:14.091Z,21.38
2022-10-10T13:18:58.221Z,21.09
2022-10-10T13:21:32.108Z,21.14
2022-10-10T13:24:04.812Z,21.20
2022-10-10T13:26:44.684Z,21.32
2022-10-10T13:29:25.132Z,21.30
2022-10-10T13:31:54.187Z,21.17
2022-10-10T13:34:30.674Z,21.14
2022-10-10T13:36:59.687Z,21.12
2022-10-10T13:39:28.504Z,21.02
2022-10-10T13:41:55.945Z,21.23
2022-10-10T13:44:47.171Z,21.37
2022-10-10T13:47:38.592Z,21.48
2022-10-10T13:50:24.499Z,21.62
2022-10-10T13:53:14.078Z,21.54
2022-10-10T13:55:41.148Z,21.42
2022-10-10T13:58:10.128Z,21.41
2022-10-10T14:00:38.037Z,21.21
2022-10-10T14:03:17.994Z,21.10
2022-10-10T14:05:46.380Z,21.31
2022-10-10T14:08:19.597Z,21.27
2022-10-10T14:11:05.358Z,21.10
2022-10-10T14:13:34.711Z,21.18
2022-10-10T14:16:20.024Z,21.19
2022-10-10T14:18:49.715Z,21.01
2022-10-10T14:21:16.223Z,20.95
2022-10-10T14:23:42.677Z,20.77
2022-10-10T14:26:20.554Z,20.82
2022-10-10T14:28:47.561Z,20.87
2022-10-10T14:31:14.280Z,20.91
2022-10-10T14:33:40.662Z,20.87
2022-10-10T14:36:07.434Z,20.66
2022-10-10T14:38:34.002Z,20.53
2022-10-10T14:41:02.980Z,20.50
2022-10-10T14:43:29.602Z,20.43
2022-10-10T14:45:58.401Z,20.33
2022-10-10T14:48:24.825Z,20.39
2022-10-10T14:50:51.731Z,20.23
2022-10-10T14:53:23.202Z,20.16
2022-10-10T14:55:55.315Z,19.89
2022-10-10T14:58:25.127Z,19.99
2022-10-10T15:00:53.050Z,19.75
2022-10-10T15:03:20.172Z,19.89
2022-10-10T15:05:48.526Z,19.86
2022-10-10T15:08:18.708Z,19.47
2022-10-10T15:10:46.474Z,19.46
2022-10-10T15:13:16.171Z,19.41
2022-10-10T15:15:42.689Z,19.41
2022-10-10T15:18:26.649Z,19.33
2022-10-10T15:20:55.627Z,19.35
2022-10-10T15:23:22.376Z,19.35
2022-10-10T15:25:51.063Z,19.22
2022-10-10T15:28:19.838Z,19.23
2022-10-10T15:30:46.766Z,19.16
2022-10-10T15:33:13.267Z,19.09
2022-10-10T15:36:03.972Z,18.86
2022-10-10T15:38:29.269Z,18.93
2022-10-10T15:41:00.536Z,18.96
2022-10-10T15:43:30.202Z,18.93
2022-10-10T15:45:58.748Z,18.86
2022-10-10T15:48:25.610Z,18.70
2022-10-10T15:50:52.171Z,18.63
2022-10-10T15:53:19.176Z,18.61
2022-10-10T15:55:46.898Z,18.64
2022-10-10T15:58:15.173Z,18.60
2022-10-10T16:00:43.482Z,18.61
2022-10-10T16:03:10.089Z,18.48
2022-10-10T16:05:38.846Z,18.33
2022-10-10T16:08:06.452Z,18.21
2022-10-10T16:10:41.041Z,18.16
2022-10-10T16:13:08.251Z,18.01
2022-10-10T16:15:35.153Z,17.96
2022-10-10T16:18:06.649Z,17.95
2022-10-10T16:20:33.203Z,17.87
2022-10-10T16:23:04.472Z,17.86
2022-10-10T16:25:30.894Z,17.84
2022-10-10T16:27:57.406Z,17.91
2022-10-10T16:30:24.004Z,17.82
2022-10-10T16:32:50.443Z,17.62
2022-10-10T16:35:17.028Z,17.50
2022-10-10T16:37:43.509Z,17.45
2022-10-10T16:40:12.762Z,17.36
2022-10-10T16:42:39.207Z,17.38
2022-10-10T16:45:06.530Z,17.31
2022-10-10T16:47:33.481Z,17.32
2022-10-10T16:49:59.969Z,17.32
2022-10-10T16:52:26.528Z,17.21
2022-10-10T16:54:52.984Z,17.13
2022-10-10T16:57:21.888Z,17.15
2022-10-10T16:59:48.522Z,17.11
2022-10-10T17:02:15.045Z,17.07
2022-10-10T17:04:41.557Z,16.94
2022-10-10T17:07:08.180Z,16.88
2022-10-10T17:09:34.620Z,16.92
2022-10-10T17:12:03.571Z,16.86
2022-10-10T17:14:30.063Z,16.81
2022-10-10T17:17:13.096Z,17.04
2022-10-10T17:19:40.229Z,16.87
2022-10-10T17:22:06.730Z,16.90
2022-10-10T17:24:33.236Z,16.80
2022-10-10T17:26:59.776Z,16.83
2022-10-10T17:29:26.269Z,16.80
2022-10-10T17:31:58.397Z,16.76
2022-10-10T17:34:27.153Z,16.73
2022-10-10T17:36:54.199Z,16.63
2022-10-10T17:39:20.616Z,16.67
2022-10-10T17:41:49.190Z,16.47
2022-10-10T17:44:15.920Z,16.36
2022-10-10T17:46:44.450Z,16.23
2022-10-10T17:49:11.710Z,16.20
2022-10-10T17:51:41.970Z,16.21
2022-10-10T17:54:10.108Z,16.14
2022-10-10T17:56:37.447Z,16.13
2022-10-10T17:59:06.418Z,16.06
2022-10-10T18:01:34.519Z,15.99
2022-10-10T18:04:02.020Z,15.99
2022-10-10T18:06:29.314Z,15.97
2022-10-10T18:08:56.687Z,15.95
2022-10-10T18:11:29.046Z,15.96
2022-10-10T18:14:00.138Z,15.94
2022-10-10T18:16:30.131Z,15.91
2022-10-10T18:19:00.399Z,15.86
2022-10-10T18:21:27.739Z,15.84
2022-10-10T18:23:54.942Z,15.81
2022-10-10T18:26:23.998Z,15.81
2022-10-10T18:28:53.790Z,15.83
2022-10-10T18:31:23.556Z,15.72
2022-10-10T18:33:50.434Z,15.77
2022-10-10T18:36:20.469Z,15.75
2022-10-10T18:38:47.431Z,15.78
2022-10-10T18:41:17.924Z,15.89
2022-10-10T18:43:45.142Z,15.84
2022-10-10T18:46:14.033Z,15.77
2022-10-10T18:48:41.663Z,15.71
2022-10-10T18:51:15.685Z,15.72
2022-10-10T18:53:45.267Z,15.72
2022-10-10T18:56:20.869Z,15.60
2022-10-10T18:58:50.412Z,15.66
2022-10-10T19:01:21.117Z,15.75
2022-10-10T19:03:50.868Z,15.70
2022-10-10T19:06:19.577Z,15.72
2022-10-10T19:08:46.459Z,15.73
2022-10-10T19:11:22.356Z,15.80
2022-10-10T19:13:49.234Z,15.79
2022-10-10T19:16:19.059Z,15.56
2022-10-10T19:18:48.273Z,15.65
2022-10-10T19:21:15.980Z,15.59
2022-10-10T19:23:47.834Z,15.55
2022-10-10T19:26:17.715Z,15.50
2022-10-10T19:28:46.903Z,15.40
2022-10-10T19:31:18.297Z,15.42
2022-10-10T19:33:45.999Z,15.43
2022-10-10T19:36:13.491Z,15.47
2022-10-10T19:38:44.650Z,15.34
2022-10-10T19:41:13.301Z,15.26
2022-10-10T19:43:44.949Z,15.27
2022-10-10T19:46:14.582Z,15.33
2022-10-10T19:48:41.808Z,15.33
2022-10-10T19:51:17.187Z,15.36
2022-10-10T19:53:44.121Z,15.32
2022-10-10T19:56:24.175Z,15.16
2022-10-10T19:58:56.282Z,15.10
2022-10-10T20:01:29.051Z,15.05
2022-10-10T20:03:56.829Z,14.99
2022-10-10T20:06:23.467Z,14.91
2022-10-10T20:08:50.116Z,15.06
2022-10-10T20:11:17.378Z,15.14
2022-10-10T20:13:46.143Z,15.28
2022-10-10T20:16:15.753Z,15.25
2022-10-10T20:18:46.518Z,15.14
2022-10-10T20:21:20.525Z,15.12
2022-10-10T20:23:50.979Z,15.04
2022-10-10T20:26:22.339Z,15.05
2022-10-10T20:28:56.866Z,15.05
2022-10-10T20:31:31.735Z,14.94
2022-10-10T20:34:02.583Z,14.90
2022-10-10T20:36:30.682Z,14.96
2022-10-10T20:39:02.063Z,15.02
2022-10-10T20:41:34.492Z,15.04
2022-10-10T20:44:06.233Z,15.05
2022-10-10T20:46:40.506Z,14.94
2022-10-10T20:49:11.831Z,14.85
2022-10-10T20:51:41.230Z,14.88
2022-10-10T20:54:10.088Z,14.83
2022-10-10T20:56:41.397Z,14.77
2022-10-10T20:59:10.743Z,14.69
2022-10-10T21:01:40.121Z,14.65
2022-10-10T21:04:10.375Z,14.76
2022-10-10T21:06:38.258Z,14.76
2022-10-10T21:09:07.754Z,14.85
2022-10-10T21:11:35.185Z,14.86
2022-10-10T21:14:04.663Z,14.89
2022-10-10T21:16:34.615Z,14.89
2022-10-10T21:19:07.323Z,14.89
2022-10-10T21:21:36.882Z,14.94
2022-10-10T21:24:11.123Z,14.93
2022-10-10T21:26:37.643Z,14.86
2022-10-10T21:29:08.226Z,14.74
2022-10-10T21:31:39.115Z,14.60
2022-10-10T21:34:07.573Z,14.47
2022-10-10T21:36:37.191Z,14.53
2022-10-10T21:39:06.861Z,14.57
2022-10-10T21:41:33.426Z,14.49
2022-10-10T21:44:00.330Z,14.41
2022-10-10T21:46:36.744Z,14.45
2022-10-10T21:49:11.198Z,14.34
2022-10-10T21:51:46.609Z,14.23
2022-10-10T21:54:16.058Z,14.33
2022-10-10T21:56:44.860Z,14.08
2022-10-10T21:59:11.739Z,13.89
2022-10-10T22:01:41.031Z,13.82
2022-10-10T22:04:09.856Z,13.86
2022-10-10T22:06:41.699Z,13.90
2022-10-10T22:09:13.398Z,13.87
2022-10-10T22:11:40.088Z,13.71
2022-10-10T22:14:06.540Z,13.56
2022-10-10T22:16:35.704Z,13.66
2022-10-10T22:19:02.225Z,13.41
2022-10-10T22:21:31.742Z,13.46
2022-10-10T22:24:03.540Z,13.48
2022-10-10T22:26:31.026Z,13.46
2022-10-10T22:28:57.800Z,13.43
2022-10-10T22:31:24.499Z,13.34
2022-10-10T22:33:51.073Z,13.37
2022-10-10T22:36:19.778Z,13.35
2022-10-10T22:38:48.540Z,13.26
2022-10-10T22:41:14.969Z,13.24
2022-10-10T22:43:43.878Z,13.09
2022-10-10T22:46:15.168Z,12.90
2022-10-10T22:48:41.722Z,12.84
2022-10-10T22:51:16.617Z,12.79
2022-10-10T22:53:47.310Z,12.88
2022-10-10T22:56:19.176Z,12.72
2022-10-10T22:58:47.361Z,12.69
2022-10-10T23:01:20.806Z,12.62
2022-10-10T23:03:47.475Z,12.52
2022-10-10T23:06:16.544Z,12.64
2022-10-10T23:08:42.954Z,12.48
2022-10-10T23:11:11.840Z,12.59
2022-10-10T23:13:38.341Z,12.63
2022-10-10T23:16:07.887Z,12.80
2022-10-10T23:18:34.641Z,12.76
2022-10-10T23:21:01.044Z,12.63
2022-10-10T23:23:30.119Z,12.62
2022-10-10T23:25:56.626Z,12.53
2022-10-10T23:28:26.281Z,12.66
2022-10-10T23:30:52.791Z,12.61
2022-10-10T23:33:19.219Z,12.67
2022-10-10T23:35:59.692Z,12.53
2022-10-10T23:38:26.686Z,12.53
2022-10-10T23:40:55.935Z,12.44
2022-10-10T23:43:26.249Z,12.31
2022-10-10T23:45:55.218Z,12.14
2022-10-10T23:48:21.963Z,12.04
2022-10-10T23:50:48.494Z,12.00
2022-10-10T23:53:16.135Z,11.95
2022-10-10T23:55:42.589Z,11.81
2022-10-10T23:58:09.477Z,11.80
